sensor_id;sensor_type;location;lat;lon;timestamp;P1;durP1;ratioP1;P2;durP2;ratioP2
52608;SDS011;38503;48.544;12.142;2023-03-24T07:14:38;8.50;;;7.40;;
52608;SDS011;38503;48.544;12.142;2023-03-24T07:17:05;9.27;;;6.83;;
52608;SDS011;38503;48.544;12.142;2023-03-24T07:19:32;8.10;;;7.30;;
52608;SDS011;38503;48.544;12.142;2023-03-24T07:21:59;7.37;;;6.67;;
52608;SDS011;38503;48.544;12.142;2023-03-24T07:24:26;9.93;;;6.93;;
52608;SDS011;38503;48.544;12.142;2023-03-24T07:26:56;8.70;;;7.17;;
52608;SDS011;38503;48.544;12.142;2023-03-24T07:29:23;9.87;;;7.50;;
52608;SDS011;38503;48.544;12.142;2023-03-24T07:31:50;9.87;;;7.57;;
52608;SDS011;38503;48.544;12.142;2023-03-24T07:34:18;8.07;;;6.87;;
52608;SDS011;38503;48.544;12.142;2023-03-24T07:36:45;8.90;;;7.10;;
52608;SDS011;38503;48.544;12.142;2023-03-24T07:39:12;7.17;;;6.47;;
52608;SDS011;38503;48.544;12.142;2023-03-24T07:41:39;7.90;;;6.37;;
52608;SDS011;38503;48.544;12.142;2023-03-24T07:44:06;10.03;;;7.33;;
52608;SDS011;38503;48.544;12.142;2023-03-24T07:46:33;8.33;;;7.00;;
52608;SDS011;38503;48.544;12.142;2023-03-24T07:49:01;10.60;;;6.90;;
52608;SDS011;38503;48.544;12.142;2023-03-24T07:51:44;7.70;;;6.97;;
52608;SDS011;38503;48.544;12.142;2023-03-24T07:54:11;7.90;;;7.10;;
52608;SDS011;38503;48.544;12.142;2023-03-24T07:56:38;8.20;;;7.40;;
52608;SDS011;38503;48.544;12.142;2023-03-24T07:59:05;8.53;;;7.23;;
52608;SDS011;38503;48.544;12.142;2023-03-24T08:01:32;9.23;;;7.00;;
52608;SDS011;38503;48.544;12.142;2023-03-24T08:04:02;9.20;;;7.10;;
52608;SDS011;38503;48.544;12.142;2023-03-24T08:06:31;8.67;;;7.07;;
52608;SDS011;38503;48.544;12.142;2023-03-24T08:08:58;9.00;;;8.10;;
52608;SDS011;38503;48.544;12.142;2023-03-24T08:11:25;10.53;;;8.13;;
52608;SDS011;38503;48.544;12.142;2023-03-24T08:13:52;10.17;;;7.97;;
52608;SDS011;38503;48.544;12.142;2023-03-24T08:16:18;8.07;;;7.27;;
52608;SDS011;38503;48.544;12.142;2023-03-24T08:18:46;8.80;;;7.63;;
52608;SDS011;38503;48.544;12.142;2023-03-24T08:21:14;9.07;;;8.17;;
52608;SDS011;38503;48.544;12.142;2023-03-24T08:23:40;9.67;;;8.67;;
52608;SDS011;38503;48.544;12.142;2023-03-24T08:26:08;9.50;;;8.53;;
52608;SDS011;38503;48.544;12.142;2023-03-24T08:28:37;12.10;;;8.93;;
52608;SDS011;38503;48.544;12.142;2023-03-24T08:31:04;10.17;;;8.77;;
52608;SDS011;38503;48.544;12.142;2023-03-24T08:33:32;10.77;;;8.80;;
52608;SDS011;38503;48.544;12.142;2023-03-24T08:35:59;10.77;;;8.40;;
52608;SDS011;38503;48.544;12.142;2023-03-24T08:38:26;10.30;;;8.37;;
52608;SDS011;38503;48.544;12.142;2023-03-24T08:40:57;12.73;;;8.60;;
52608;SDS011;38503;48.544;12.142;2023-03-24T08:43:32;12.70;;;9.67;;
52608;SDS011;38503;48.544;12.142;2023-03-24T08:46:01;10.13;;;9.10;;
52608;SDS011;38503;48.544;12.142;2023-03-24T08:48:29;9.53;;;8.63;;
52608;SDS011;38503;48.544;12.142;2023-03-24T08:50:56;12.60;;;9.13;;
52608;SDS011;38503;48.544;12.142;2023-03-24T08:53:23;12.03;;;8.97;;
52608;SDS011;38503;48.544;12.142;2023-03-24T08:55:49;11.33;;;8.90;;
52608;SDS011;38503;48.544;12.142;2023-03-24T08:58:18;10.37;;;8.80;;
52608;SDS011;38503;48.544;12.142;2023-03-24T09:00:46;11.20;;;9.67;;
52608;SDS011;38503;48.544;12.142;2023-03-24T09:03:17;10.23;;;9.23;;
52608;SDS011;38503;48.544;12.142;2023-03-24T09:05:48;11.23;;;9.80;;
52608;SDS011;38503;48.544;12.142;2023-03-24T09:08:16;10.37;;;8.70;;
52608;SDS011;38503;48.544;12.142;2023-03-24T09:10:44;9.50;;;8.50;;
52608;SDS011;38503;48.544;12.142;2023-03-24T09:13:14;13.60;;;9.17;;
52608;SDS011;38503;48.544;12.142;2023-03-24T09:15:50;10.87;;;9.07;;
52608;SDS011;38503;48.544;12.142;2023-03-24T09:18:23;13.07;;;9.23;;
52608;SDS011;38503;48.544;12.142;2023-03-24T09:20:51;11.40;;;9.03;;
52608;SDS011;38503;48.544;12.142;2023-03-24T09:23:18;11.03;;;8.50;;
52608;SDS011;38503;48.544;12.142;2023-03-24T09:25:50;8.53;;;7.73;;
52608;SDS011;38503;48.544;12.142;2023-03-24T09:28:19;9.03;;;7.57;;
52608;SDS011;38503;48.544;12.142;2023-03-24T09:30:48;9.33;;;6.83;;
52608;SDS011;38503;48.544;12.142;2023-03-24T09:33:16;9.23;;;6.97;;
52608;SDS011;38503;48.544;12.142;2023-03-24T09:35:43;9.70;;;6.97;;
52608;SDS011;38503;48.544;12.142;2023-03-24T09:38:10;10.90;;;7.27;;
52608;SDS011;38503;48.544;12.142;2023-03-24T09:40:38;7.73;;;6.77;;
52608;SDS011;38503;48.544;12.142;2023-03-24T09:43:08;7.90;;;6.57;;
52608;SDS011;38503;48.544;12.142;2023-03-24T09:45:47;6.90;;;6.20;;
52608;SDS011;38503;48.544;12.142;2023-03-24T09:48:25;7.23;;;6.40;;
52608;SDS011;38503;48.544;12.142;2023-03-24T09:51:03;9.80;;;6.57;;
52608;SDS011;38503;48.544;12.142;2023-03-24T09:56:39;7.27;;;6.30;;
52608;SDS011;38503;48.544;12.142;2023-03-24T09:59:16;6.63;;;5.93;;
52608;SDS011;38503;48.544;12.142;2023-03-24T10:01:49;7.70;;;6.90;;
52608;SDS011;38503;48.544;12.142;2023-03-24T10:04:18;8.87;;;6.80;;
52608;SDS011;38503;48.544;12.142;2023-03-24T10:06:47;9.00;;;6.80;;
52608;SDS011;38503;48.544;12.142;2023-03-24T10:09:30;8.63;;;6.90;;
52608;SDS011;38503;48.544;12.142;2023-03-24T10:12:09;7.57;;;6.67;;
52608;SDS011;38503;48.544;12.142;2023-03-24T10:18:00;8.27;;;6.40;;
52608;SDS011;38503;48.544;12.142;2023-03-24T10:20:33;7.20;;;6.33;;
52608;SDS011;38503;48.544;12.142;2023-03-24T10:29:33;9.70;;;7.00;;
52608;SDS011;38503;48.544;12.142;2023-03-24T10:32:32;8.40;;;6.50;;
52608;SDS011;38503;48.544;12.142;2023-03-24T10:34:49;8.17;;;6.47;;
52608;SDS011;38503;48.544;12.142;2023-03-24T10:37:27;8.30;;;5.67;;
52608;SDS011;38503;48.544;12.142;2023-03-24T10:39:56;6.67;;;6.03;;
52608;SDS011;38503;48.544;12.142;2023-03-24T10:42:24;6.80;;;5.53;;
52608;SDS011;38503;48.544;12.142;2023-03-24T10:44:56;8.13;;;5.70;;
52608;SDS011;38503;48.544;12.142;2023-03-24T10:47:24;7.33;;;6.13;;
52608;SDS011;38503;48.544;12.142;2023-03-24T10:49:57;6.33;;;5.73;;
52608;SDS011;38503;48.544;12.142;2023-03-24T10:52:41;5.90;;;5.00;;
52608;SDS011;38503;48.544;12.142;2023-03-24T10:55:14;6.63;;;5.33;;
52608;SDS011;38503;48.544;12.142;2023-03-24T10:57:45;6.67;;;5.63;;
52608;SDS011;38503;48.544;12.142;2023-03-24T11:00:16;6.83;;;5.73;;
52608;SDS011;38503;48.544;12.142;2023-03-24T11:05:26;7.00;;;5.83;;
52608;SDS011;38503;48.544;12.142;2023-03-24T11:07:57;6.50;;;5.50;;
52608;SDS011;38503;48.544;12.142;2023-03-24T11:10:37;6.97;;;5.17;;
52608;SDS011;38503;48.544;12.142;2023-03-24T11:13:04;7.33;;;5.63;;
52608;SDS011;38503;48.544;12.142;2023-03-24T11:15:33;6.47;;;5.03;;
52608;SDS011;38503;48.544;12.142;2023-03-24T11:20:37;7.30;;;5.00;;
52608;SDS011;38503;48.544;12.142;2023-03-24T11:25:44;5.40;;;4.77;;
52608;SDS011;38503;48.544;12.142;2023-03-24T11:28:20;7.33;;;5.10;;
52608;SDS011;38503;48.544;12.142;2023-03-24T11:30:51;5.23;;;4.33;;
52608;SDS011;38503;48.544;12.142;2023-03-24T11:33:29;5.97;;;4.77;;
52608;SDS011;38503;48.544;12.142;2023-03-24T11:36:33;6.27;;;4.97;;
52608;SDS011;38503;48.544;12.142;2023-03-24T11:41:31;4.80;;;4.30;;
52608;SDS011;38503;48.544;12.142;2023-03-24T11:44:19;5.20;;;4.70;;
52608;SDS011;38503;48.544;12.142;2023-03-24T11:46:56;4.97;;;3.70;;
52608;SDS011;38503;48.544;12.142;2023-03-24T11:49:29;5.13;;;3.97;;
52608;SDS011;38503;48.544;12.142;2023-03-24T11:51:59;4.80;;;3.97;;
